Time;durP1;ratioP1;P1;durP2;ratioP2;P2;SDS_P1;SDS_P2;PMS_P1;PMS_P2;Temp;Humidity;BMP_temperature;BMP_pressure;BME280_temperature;BME280_humidity;BME280_pressure;Samples;Min_cycle;Max_cycle;Signal;HPM_P1;HPM_P2
2022/11/11 00:00:24;;;;;;;10.45;4.18;;;;;;;;;;5042333;28;20035;-61
2022/11/11 00:02:50;;;;;;;11.98;4.78;;;;;;;;;;5023974;28;20034;-60
2022/11/11 00:05:16;;;;;;;10.13;4.57;;;;;;;;;;5023671;28;20168;-60
2022/11/11 00:07:42;;;;;;;17.15;4.30;;;;;;;;;;5024597;28;20037;-61
2022/11/11 00:10:09;;;;;;;12.10;4.50;;;;;;;;;;5024510;28;20346;-60
2022/11/11 00:12:34;;;;;;;8.18;4.78;;;;;;;;;;5064207;28;20548;-60
2022/11/11 00:15:00;;;;;;;11.15;4.90;;;;;;;;;;5064043;28;20119;-60
2022/11/11 00:25:37;;;;;;;9.57;4.35;;;;;;;;;;5039988;28;20070;-60
2022/11/11 00:28:03;;;;;;;10.30;4.60;;;;;;;;;;5044367;28;20510;-60
2022/11/11 00:30:28;;;;;;;11.18;5.18;;;;;;;;;;5048287;28;20029;-60
2022/11/11 00:32:54;;;;;;;11.00;4.93;;;;;;;;;;5047566;28;20033;-61
2022/11/11 00:38:10;;;;;;;;;;;;;;;;;;5028778;28;20122;-61
2022/11/11 00:40:35;;;;;;;10.40;4.13;;;;;;;;;;5044728;28;19912;-60
2022/11/11 00:43:01;;;;;;;14.75;4.30;;;;;;;;;;5047139;28;20431;-60
2022/11/11 00:45:26;;;;;;;8.48;4.00;;;;;;;;;;5047824;28;20061;-61
2022/11/11 00:50:58;;;;;;;10.88;4.53;;;;;;;;;;5044445;28;20057;-60
2022/11/11 00:53:25;;;;;;;10.18;4.10;;;;;;;;;;5043820;28;20048;-60
2022/11/11 00:55:51;;;;;;;11.68;4.43;;;;;;;;;;5045761;28;20124;-61
2022/11/11 00:58:16;;;;;;;11.65;4.55;;;;;;;;;;5051956;28;20119;-61
2022/11/11 01:00:43;;;;;;;10.63;3.75;;;;;;;;;;5067755;28;20039;-60
2022/11/11 01:03:08;;;;;;;11.50;3.53;;;;;;;;;;5066082;28;20052;-60
2022/11/11 01:05:36;;;;;;;8.95;3.88;;;;;;;;;;5067453;28;20071;-60
2022/11/11 01:08:01;;;;;;;9.95;3.75;;;;;;;;;;5067183;28;20043;-61
2022/11/11 01:10:40;;;;;;;8.77;4.10;;;;;;;;;;5066933;28;20029;-60
2022/11/11 01:13:19;;;;;;;11.00;4.15;;;;;;;;;;5067241;28;20040;-61
2022/11/11 01:15:52;;;;;;;9.35;3.67;;;;;;;;;;5067368;28;20025;-60
2022/11/11 01:18:20;;;;;;;9.35;4.88;;;;;;;;;;5065176;28;20074;-61
2022/11/11 01:20:46;;;;;;;9.48;3.78;;;;;;;;;;5043422;28;20037;-61
2022/11/11 01:23:12;;;;;;;7.45;3.03;;;;;;;;;;5047232;28;20090;-61
2022/11/11 01:25:39;;;;;;;7.07;3.85;;;;;;;;;;5046744;28;20572;-60
2022/11/11 01:28:06;;;;;;;8.35;4.03;;;;;;;;;;5046184;28;20502;-60
2022/11/11 01:30:33;;;;;;;9.38;3.65;;;;;;;;;;5047161;28;20025;-61
2022/11/11 01:32:59;;;;;;;10.15;3.70;;;;;;;;;;5046410;28;20041;-60
2022/11/11 01:35:24;;;;;;;9.10;3.80;;;;;;;;;;5045437;28;20033;-61
2022/11/11 01:37:50;;;;;;;8.38;3.72;;;;;;;;;;5029682;28;20048;-60
2022/11/11 01:40:16;;;;;;;11.57;3.90;;;;;;;;;;5046111;28;20045;-60
2022/11/11 01:43:13;;;;;;;9.35;3.75;;;;;;;;;;5046755;28;20236;-61
2022/11/11 01:45:53;;;;;;;9.48;4.22;;;;;;;;;;5046197;28;20138;-60
2022/11/11 01:51:41;;;;;;;12.20;5.03;;;;;;;;;;5043823;28;20048;-60
2022/11/11 01:54:15;;;;;;;9.07;4.43;;;;;;;;;;5044301;28;20053;-61
2022/11/11 01:56:43;;;;;;;12.25;3.92;;;;;;;;;;5044074;28;20060;-61
2022/11/11 01:59:12;;;;;;;11.65;4.40;;;;;;;;;;5037138;28;20050;-60
2022/11/11 02:01:38;;;;;;;11.15;4.53;;;;;;;;;;5020127;28;20716;-60
2022/11/11 02:06:54;;;;;;;12.45;4.63;;;;;;;;;;5023947;28;20630;-60
2022/11/11 02:09:21;;;;;;;11.00;4.28;;;;;;;;;;5032224;28;20107;-60
2022/11/11 02:14:42;;;;;;;11.30;4.80;;;;;;;;;;5065820;28;20043;-60
2022/11/11 02:17:12;;;;;;;15.60;5.13;;;;;;;;;;5065835;28;20041;-60
2022/11/11 02:19:42;;;;;;;10.32;4.60;;;;;;;;;;5060259;28;20045;-61
2022/11/11 02:22:15;;;;;;;9.80;3.67;;;;;;;;;;5044872;28;20044;-61
2022/11/11 02:24:40;;;;;;;9.37;4.57;;;;;;;;;;5045669;28;20111;-60
2022/11/11 02:27:09;;;;;;;9.57;4.45;;;;;;;;;;5046202;28;20108;-60
2022/11/11 02:29:35;;;;;;;15.10;5.20;;;;;;;;;;5042317;28;20071;-61
2022/11/11 02:32:00;;;;;;;11.45;4.88;;;;;;;;;;5045667;28;20422;-60
2022/11/11 02:34:31;;;;;;;12.35;4.95;;;;;;;;;;5045693;28;20029;-60
2022/11/11 02:36:57;;;;;;;10.02;4.57;;;;;;;;;;5040327;28;20068;-60
2022/11/11 02:39:24;;;;;;;11.05;3.92;;;;;;;;;;5035544;28;20677;-61
2022/11/11 02:41:56;;;;;;;11.32;4.75;;;;;;;;;;5028391;28;20044;-61
2022/11/11 02:44:21;;;;;;;10.27;4.15;;;;;;;;;;5042074;28;20486;-61
2022/11/11 02:46:47;;;;;;;11.52;4.53;;;;;;;;;;5025369;28;20061;-60
2022/11/11 02:49:12;;;;;;;10.77;4.53;;;;;;;;;;5025176;28;20030;-61
2022/11/11 02:51:37;;;;;;;13.45;4.28;;;;;;;;;;5024870;28;20048;-61
2022/11/11 02:54:02;;;;;;;9.00;3.50;;;;;;;;;;5027717;28;20037;-60
2022/11/11 02:59:12;;;;;;;8.85;3.90;;;;;;;;;;5045044;28;20043;-60
2022/11/11 03:01:38;;;;;;;12.55;4.63;;;;;;;;;;5044827;28;20481;-60
2022/11/11 03:04:04;;;;;;;15.00;5.15;;;;;;;;;;5044314;28;20517;-60
2022/11/11 03:06:29;;;;;;;12.60;4.78;;;;;;;;;;5045869;28;20021;-61
2022/11/11 03:08:54;;;;;;;8.95;4.25;;;;;;;;;;5044885;28;20094;-60
2022/11/11 03:11:26;;;;;;;12.05;4.50;;;;;;;;;;5047086;28;20112;-60
2022/11/11 03:13:56;;;;;;;12.60;4.68;;;;;;;;;;5044229;28;20061;-60
2022/11/11 03:19:07;;;;;;;8.57;4.20;;;;;;;;;;5043475;28;20457;-60
2022/11/11 03:21:33;;;;;;;11.48;4.40;;;;;;;;;;5045249;28;20021;-61
2022/11/11 03:23:58;;;;;;;9.60;4.32;;;;;;;;;;5044719;28;20033;-61
2022/11/11 03:26:24;;;;;;;7.72;3.88;;;;;;;;;;5027765;28;20037;-60
2022/11/11 03:28:49;;;;;;;9.23;4.05;;;;;;;;;;5024360;28;20045;-61
2022/11/11 03:31:15;;;;;;;10.23;3.92;;;;;;;;;;5024490;28;20036;-60
2022/11/11 03:33:41;;;;;;;10.60;4.38;;;;;;;;;;5029542;28;20024;-60
2022/11/11 03:36:06;;;;;;;11.50;4.75;;;;;;;;;;5042860;28;20027;-61
2022/11/11 03:38:32;;;;;;;11.57;4.60;;;;;;;;;;5044732;28;20025;-61
2022/11/11 03:40:57;;;;;;;13.23;4.90;;;;;;;;;;5044305;28;20517;-60
2022/11/11 03:43:25;;;;;;;9.23;4.03;;;;;;;;;;5036108;28;20036;-61
2022/11/11 03:45:55;;;;;;;7.75;3.90;;;;;;;;;;5044518;28;20048;-60
2022/11/11 03:48:21;;;;;;;10.88;4.63;;;;;;;;;;5044614;28;20049;-60
2022/11/11 03:50:47;;;;;;;9.10;4.40;;;;;;;;;;5040812;28;20578;-61
2022/11/11 03:53:14;;;;;;;10.93;4.88;;;;;;;;;;5034548;28;20127;-60
2022/11/11 03:55:40;;;;;;;7.88;4.47;;;;;;;;;;5064363;28;20509;-61
2022/11/11 03:58:05;;;;;;;8.07;3.47;;;;;;;;;;5064274;28;20025;-61
2022/11/11 04:00:30;;;;;;;10.65;4.32;;;;;;;;;;5041203;28;20027;-59
2022/11/11 04:11:34;;;;;;;;;;;;;;;;;;5058393;28;20094;-61
2022/11/11 04:16:49;;;;;;;7.65;3.50;;;;;;;;;;5028272;28;20579;-60
2022/11/11 04:21:58;;;;;;;11.68;4.28;;;;;;;;;;5027937;28;20422;-60
2022/11/11 04:27:11;;;;;;;;;;;;;;;;;;5028505;28;20068;-61
2022/11/11 04:29:37;;;;;;;9.73;4.53;;;;;;;;;;5026193;28;19917;-60
2022/11/11 04:34:53;;;;;;;10.20;4.68;;;;;;;;;;5027988;28;20040;-60
2022/11/11 04:37:20;;;;;;;11.77;4.75;;;;;;;;;;5027247;28;20035;-60
2022/11/11 04:42:31;;;;;;;10.02;4.68;;;;;;;;;;5048202;28;20040;-60
2022/11/11 04:47:54;;;;;;;11.45;4.28;;;;;;;;;;5046935;28;20080;-61
2022/11/11 04:50:20;;;;;;;10.35;4.68;;;;;;;;;;5046227;28;20186;-61
2022/11/11 04:52:46;;;;;;;10.77;4.93;;;;;;;;;;5046943;28;20136;-60
2022/11/11 04:57:55;;;;;;;10.02;4.50;;;;;;;;;;5047769;28;20036;-61
2022/11/11 05:00:21;;;;;;;9.45;4.35;;;;;;;;;;5047848;28;20025;-61
2022/11/11 05:10:58;;;;;;;16.08;4.93;;;;;;;;;;5047461;28;20118;-61
2022/11/11 05:21:42;;;;;;;7.18;3.47;;;;;;;;;;5026526;28;20561;-61
2022/11/11 05:26:51;;;;;;;9.75;4.65;;;;;;;;;;5028102;28;20064;-61
2022/11/11 05:29:16;;;;;;;11.65;4.55;;;;;;;;;;5046406;28;20430;-60
2022/11/11 05:31:42;;;;;;;12.68;4.30;;;;;;;;;;5046819;28;20075;-61
2022/11/11 05:34:07;;;;;;;9.27;4.18;;;;;;;;;;5046534;28;20123;-60
2022/11/11 05:36:32;;;;;;;11.70;4.20;;;;;;;;;;5043867;28;20024;-61
2022/11/11 05:38:58;;;;;;;13.07;4.30;;;;;;;;;;5046512;28;20032;-60
2022/11/11 05:41:23;;;;;;;8.85;4.05;;;;;;;;;;5046451;28;20422;-60
2022/11/11 05:43:48;;;;;;;7.72;4.00;;;;;;;;;;5043935;28;20087;-60
2022/11/11 05:46:13;;;;;;;8.68;4.00;;;;;;;;;;5045420;28;20145;-60
2022/11/11 05:49:13;;;;;;;8.88;3.55;;;;;;;;;;5045520;28;20048;-60
2022/11/11 05:51:26;;;;;;;7.82;3.55;;;;;;;;;;5046704;28;20033;-60
2022/11/11 05:53:52;;;;;;;10.25;3.95;;;;;;;;;;5045620;28;20434;-60
2022/11/11 05:56:18;;;;;;;12.02;4.70;;;;;;;;;;5041369;28;20037;-60
2022/11/11 05:58:43;;;;;;;11.70;4.15;;;;;;;;;;5041813;28;20029;-60
2022/11/11 06:01:08;;;;;;;8.82;3.75;;;;;;;;;;5046273;28;20037;-60
2022/11/11 06:03:34;;;;;;;9.25;3.90;;;;;;;;;;5046380;28;20079;-61
2022/11/11 06:05:59;;;;;;;14.27;4.45;;;;;;;;;;5045853;28;20098;-61
2022/11/11 06:08:24;;;;;;;11.88;4.55;;;;;;;;;;5045278;28;20045;-61
2022/11/11 06:10:52;;;;;;;8.45;4.00;;;;;;;;;;5036859;28;20043;-60
2022/11/11 06:13:17;;;;;;;10.00;3.88;;;;;;;;;;5065454;28;20047;-60
2022/11/11 06:15:42;;;;;;;12.90;5.07;;;;;;;;;;5065831;28;20033;-60
2022/11/11 06:18:08;;;;;;;10.35;4.18;;;;;;;;;;5057621;28;20031;-61
2022/11/11 06:20:36;;;;;;;10.00;3.70;;;;;;;;;;5033554;28;20061;-60
2022/11/11 06:23:03;;;;;;;8.02;3.90;;;;;;;;;;5026177;28;20530;-60
2022/11/11 06:28:15;;;;;;;11.90;3.78;;;;;;;;;;5038696;28;20036;-61
2022/11/11 06:30:41;;;;;;;8.55;3.70;;;;;;;;;;5046022;28;20041;-60
2022/11/11 06:33:07;;;;;;;8.88;3.78;;;;;;;;;;5045487;28;20045;-61
2022/11/11 06:35:34;;;;;;;9.38;4.05;;;;;;;;;;5044044;28;20037;-61
2022/11/11 06:37:59;;;;;;;12.18;4.43;;;;;;;;;;5045476;28;20052;-60
2022/11/11 06:40:25;;;;;;;7.30;3.70;;;;;;;;;;5044084;28;20298;-60
2022/11/11 06:42:50;;;;;;;8.48;4.15;;;;;;;;;;5044541;28;20017;-60
2022/11/11 06:45:15;;;;;;;10.60;4.32;;;;;;;;;;5045914;28;20078;-61
2022/11/11 06:47:47;;;;;;;9.82;3.90;;;;;;;;;;5065751;27;20402;-61
2022/11/11 06:50:13;;;;;;;10.90;4.25;;;;;;;;;;5061464;28;20032;-61
2022/11/11 06:52:38;;;;;;;10.95;4.70;;;;;;;;;;5061365;28;20477;-61
2022/11/11 06:55:04;;;;;;;15.82;4.53;;;;;;;;;;5049206;28;20112;-61
2022/11/11 06:57:29;;;;;;;9.52;4.15;;;;;;;;;;5041687;28;20021;-61
2022/11/11 06:59:55;;;;;;;10.23;4.13;;;;;;;;;;5041282;28;20577;-61
2022/11/11 07:02:20;;;;;;;10.82;4.00;;;;;;;;;;5049777;28;20041;-61
2022/11/11 07:04:45;;;;;;;9.48;3.88;;;;;;;;;;5061495;28;20047;-61
2022/11/11 07:07:10;;;;;;;10.32;4.13;;;;;;;;;;5061222;28;20025;-61
2022/11/11 07:09:36;;;;;;;7.68;3.72;;;;;;;;;;5061955;28;20040;-61
2022/11/11 07:12:01;;;;;;;10.95;5.20;;;;;;;;;;5076208;28;20032;-61
2022/11/11 07:14:26;;;;;;;12.98;5.88;;;;;;;;;;5080094;28;20052;-61
2022/11/11 07:16:52;;;;;;;11.43;4.35;;;;;;;;;;5074239;28;20461;-60
2022/11/11 07:19:17;;;;;;;7.45;2.60;;;;;;;;;;5060939;28;20037;-61
2022/11/11 07:21:42;;;;;;;7.88;4.13;;;;;;;;;;5061158;28;20025;-61
2022/11/11 07:24:08;;;;;;;9.80;3.75;;;;;;;;;;5060398;28;20020;-61
2022/11/11 07:26:33;;;;;;;9.75;4.15;;;;;;;;;;5054715;28;20533;-61
2022/11/11 07:28:58;;;;;;;8.60;4.47;;;;;;;;;;5053395;28;20055;-61
2022/11/11 07:31:24;;;;;;;9.23;4.03;;;;;;;;;;5057207;28;20159;-61
2022/11/11 07:33:49;;;;;;;10.63;4.70;;;;;;;;;;5054632;28;20021;-61
2022/11/11 07:36:14;;;;;;;10.82;4.10;;;;;;;;;;5060635;28;20016;-61
2022/11/11 07:38:40;;;;;;;9.55;4.07;;;;;;;;;;5056751;28;20121;-61
2022/11/11 07:41:05;;;;;;;9.07;4.22;;;;;;;;;;5051057;28;20045;-61
2022/11/11 07:43:30;;;;;;;13.38;3.72;;;;;;;;;;5052748;28;20040;-61
2022/11/11 07:45:56;;;;;;;11.57;4.32;;;;;;;;;;5051512;28;20422;-61
2022/11/11 07:48:21;;;;;;;13.23;4.90;;;;;;;;;;5060160;28;20174;-61
2022/11/11 07:50:46;;;;;;;11.63;4.30;;;;;;;;;;5050432;28;20482;-61
2022/11/11 07:53:11;;;;;;;9.70;4.05;;;;;;;;;;5040736;28;20171;-61
2022/11/11 07:55:37;;;;;;;11.82;4.53;;;;;;;;;;5040248;28;20068;-61
2022/11/11 07:58:02;;;;;;;11.15;4.63;;;;;;;;;;5035357;28;20045;-61
2022/11/11 08:00:27;;;;;;;10.73;4.18;;;;;;;;;;5036880;28;20041;-61
2022/11/11 08:02:53;;;;;;;18.98;6.32;;;;;;;;;;5029556;28;20538;-61
2022/11/11 08:05:18;;;;;;;13.65;5.03;;;;;;;;;;5034876;28;20041;-61
2022/11/11 08:07:43;;;;;;;13.30;4.72;;;;;;;;;;5035309;28;20041;-61
2022/11/11 08:10:10;;;;;;;12.57;5.60;;;;;;;;;;5035057;28;20473;-61
2022/11/11 08:15:20;;;;;;;10.30;4.85;;;;;;;;;;5029968;28;20068;-61
2022/11/11 08:17:45;;;;;;;11.65;4.75;;;;;;;;;;5030793;28;20069;-62
2022/11/11 08:20:11;;;;;;;10.65;4.28;;;;;;;;;;5024578;28;20033;-61
2022/11/11 08:22:38;;;;;;;11.57;4.72;;;;;;;;;;5027354;28;20033;-61
2022/11/11 08:25:09;;;;;;;14.20;4.90;;;;;;;;;;5026941;28;20109;-61
2022/11/11 08:27:34;;;;;;;13.10;5.18;;;;;;;;;;5037513;28;20094;-61
2022/11/11 08:30:00;;;;;;;10.73;4.35;;;;;;;;;;5032191;28;20818;-61
2022/11/11 08:32:25;;;;;;;7.82;3.65;;;;;;;;;;5033591;28;20037;-61
2022/11/11 08:34:51;;;;;;;11.68;4.80;;;;;;;;;;5029080;28;20128;-61
2022/11/11 08:37:16;;;;;;;10.23;4.70;;;;;;;;;;5031548;28;20076;-61
2022/11/11 08:39:41;;;;;;;8.27;4.03;;;;;;;;;;5034832;28;20649;-61
2022/11/11 08:42:07;;;;;;;11.38;5.07;;;;;;;;;;5030935;28;20521;-61
2022/11/11 08:44:32;;;;;;;11.23;4.07;;;;;;;;;;5037905;28;20040;-61
2022/11/11 08:46:57;;;;;;;11.48;4.72;;;;;;;;;;5042532;28;20064;-61
2022/11/11 08:49:23;;;;;;;4.88;2.05;;;;;;;;;;5031129;28;20048;-61
2022/11/11 08:51:48;;;;;;;15.82;4.75;;;;;;;;;;5032332;28;20029;-61
2022/11/11 08:54:13;;;;;;;11.13;4.65;;;;;;;;;;5038292;28;20025;-61
2022/11/11 08:56:39;;;;;;;10.77;3.75;;;;;;;;;;5028483;28;20039;-61
2022/11/11 08:59:05;;;;;;;10.02;4.43;;;;;;;;;;5028619;28;20064;-61
2022/11/11 09:01:30;;;;;;;12.43;4.18;;;;;;;;;;5032990;28;20047;-61
2022/11/11 09:03:55;;;;;;;9.50;3.97;;;;;;;;;;5038327;28;20087;-61
2022/11/11 09:06:21;;;;;;;8.85;4.72;;;;;;;;;;5035343;28;20036;-61
2022/11/11 09:08:46;;;;;;;12.73;4.38;;;;;;;;;;5032480;28;20115;-61
2022/11/11 09:11:11;;;;;;;11.30;4.75;;;;;;;;;;5032151;28;20039;-61
2022/11/11 09:13:37;;;;;;;10.73;3.70;;;;;;;;;;5045801;28;20045;-61
2022/11/11 09:16:02;;;;;;;14.60;4.72;;;;;;;;;;5044271;28;20037;-67
2022/11/11 09:18:30;;;;;;;10.10;4.15;;;;;;;;;;5046721;28;20032;-70
2022/11/11 09:20:59;;;;;;;9.10;3.92;;;;;;;;;;5045900;28;20029;-65
2022/11/11 09:23:25;;;;;;;10.15;4.00;;;;;;;;;;5045662;28;20116;-65
2022/11/11 09:25:50;;;;;;;10.25;4.28;;;;;;;;;;5044233;28;20467;-65
2022/11/11 09:28:15;;;;;;;14.00;4.70;;;;;;;;;;5045278;28;20037;-65
2022/11/11 09:30:41;;;;;;;13.63;4.72;;;;;;;;;;5045750;28;20179;-65
2022/11/11 09:33:06;;;;;;;9.10;3.97;;;;;;;;;;5046379;28;20044;-65
2022/11/11 09:35:32;;;;;;;9.48;4.72;;;;;;;;;;5045706;28;20037;-65
2022/11/11 09:37:59;;;;;;;9.57;4.57;;;;;;;;;;5044804;28;20052;-65
2022/11/11 09:40:32;;;;;;;6.20;2.92;;;;;;;;;;5045463;28;20033;-65
2022/11/11 09:43:22;;;;;;;8.05;3.70;;;;;;;;;;5044964;28;20033;-65
2022/11/11 09:46:02;;;;;;;7.72;3.13;;;;;;;;;;5045022;28;20114;-65
2022/11/11 09:48:47;;;;;;;9.93;3.50;;;;;;;;;;5045659;28;20507;-65
2022/11/11 09:51:22;;;;;;;11.75;4.18;;;;;;;;;;5031656;28;20041;-65
2022/11/11 09:54:12;;;;;;;8.50;3.60;;;;;;;;;;5042361;28;20458;-64
2022/11/11 09:56:38;;;;;;;11.07;3.83;;;;;;;;;;5032154;28;20124;-65
2022/11/11 09:59:24;;;;;;;9.27;4.60;;;;;;;;;;5045069;28;20044;-65
2022/11/11 10:01:54;;;;;;;8.70;4.00;;;;;;;;;;5035593;28;20088;-65
2022/11/11 10:04:24;;;;;;;9.90;4.72;;;;;;;;;;5031722;28;20026;-65
2022/11/11 10:06:56;;;;;;;12.75;5.43;;;;;;;;;;5033602;28;20033;-65
2022/11/11 10:09:29;;;;;;;7.22;3.38;;;;;;;;;;5034500;28;20018;-65
2022/11/11 10:12:07;;;;;;;9.68;4.55;;;;;;;;;;5035845;28;20049;-65
2022/11/11 10:14:37;;;;;;;10.80;4.45;;;;;;;;;;5038616;28;20060;-65
2022/11/11 10:17:14;;;;;;;16.83;7.07;;;;;;;;;;5031096;28;20056;-65
2022/11/11 10:20:17;;;;;;;14.07;5.07;;;;;;;;;;5027323;28;20570;-65
2022/11/11 10:22:45;;;;;;;12.00;5.20;;;;;;;;;;5043772;28;20041;-65
2022/11/11 10:25:13;;;;;;;10.85;4.45;;;;;;;;;;5043397;28;20047;-65
2022/11/11 10:27:46;;;;;;;13.48;5.72;;;;;;;;;;5036095;28;20032;-65
2022/11/11 10:30:31;;;;;;;;;;;;;;;;;;5044462;28;20053;-65
2022/11/11 10:32:59;;;;;;;11.43;5.30;;;;;;;;;;5043538;28;20146;-65
2022/11/11 10:35:30;;;;;;;7.75;3.63;;;;;;;;;;5043930;28;20033;-65
2022/11/11 10:38:10;;;;;;;9.07;3.53;;;;;;;;;;5036251;28;20594;-65
2022/11/11 10:40:42;;;;;;;11.35;4.43;;;;;;;;;;5041790;28;20037;-65
2022/11/11 10:43:21;;;;;;;6.55;3.45;;;;;;;;;;5043412;28;20044;-65
2022/11/11 10:46:02;;;;;;;9.02;3.95;;;;;;;;;;5041797;28;20064;-65
2022/11/11 10:48:39;;;;;;;7.75;3.67;;;;;;;;;;5043896;28;20042;-65
2022/11/11 10:51:05;;;;;;;8.20;3.25;;;;;;;;;;5030687;28;20128;-65
2022/11/11 10:53:35;;;;;;;6.40;3.00;;;;;;;;;;5027613;28;20437;-66
2022/11/11 10:56:15;;;;;;;9.48;2.65;;;;;;;;;;5023868;28;20048;-65
2022/11/11 10:59:12;;;;;;;5.18;2.63;;;;;;;;;;5023583;28;20038;-65
2022/11/11 11:01:46;;;;;;;8.07;3.47;;;;;;;;;;5026622;28;20045;-65
2022/11/11 11:04:19;;;;;;;;;;;;;;;;;;5033081;28;20055;-65
2022/11/11 11:06:49;;;;;;;7.87;2.53;;;;;;;;;;5026522;28;19917;-65
2022/11/11 11:09:37;;;;;;;6.40;2.50;;;;;;;;;;5024313;28;20268;-65
2022/11/11 11:12:14;;;;;;;6.88;2.50;;;;;;;;;;5039043;28;20041;-65
2022/11/11 11:14:43;;;;;;;5.72;3.20;;;;;;;;;;5047803;28;20111;-65
2022/11/11 11:17:38;;;;;;;5.82;3.05;;;;;;;;;;5031433;28;20502;-65
2022/11/11 11:20:06;;;;;;;6.13;2.60;;;;;;;;;;5023283;28;20041;-65
2022/11/11 11:22:48;;;;;;;5.68;2.58;;;;;;;;;;5023501;28;20504;-65
2022/11/11 11:25:14;;;;;;;3.75;1.88;;;;;;;;;;5023471;28;20034;-65
2022/11/11 11:27:39;;;;;;;3.95;2.20;;;;;;;;;;5023316;28;20053;-65
2022/11/11 11:30:17;;;;;;;7.80;2.35;;;;;;;;;;5021682;28;20041;-65
2022/11/11 11:32:57;;;;;;;4.78;2.70;;;;;;;;;;5019633;28;20057;-65
2022/11/11 11:35:31;;;;;;;5.90;2.70;;;;;;;;;;5030007;28;20046;-65
2022/11/11 11:37:57;;;;;;;7.65;3.17;;;;;;;;;;5031054;28;20104;-65
2022/11/11 11:40:22;;;;;;;6.18;2.90;;;;;;;;;;5035185;28;20057;-65
2022/11/11 11:42:47;;;;;;;7.57;3.53;;;;;;;;;;5026493;28;20029;-65
2022/11/11 11:45:15;;;;;;;9.00;3.40;;;;;;;;;;5034193;28;20449;-65
2022/11/11 11:48:12;;;;;;;5.88;2.78;;;;;;;;;;5042265;28;20048;-65
2022/11/11 11:50:50;;;;;;;4.97;2.88;;;;;;;;;;5028640;28;20057;-65
2022/11/11 11:53:37;;;;;;;5.18;2.88;;;;;;;;;;5033257;28;20034;-65
2022/11/11 11:56:08;;;;;;;7.47;3.08;;;;;;;;;;5027051;28;20033;-65
2022/11/11 11:58:51;;;;;;;8.07;2.60;;;;;;;;;;5029960;28;20125;-65
2022/11/11 12:01:34;;;;;;;8.07;3.47;;;;;;;;;;5032492;28;20041;-65
2022/11/11 12:04:12;;;;;;;7.65;3.00;;;;;;;;;;5032641;28;20049;-65
2022/11/11 12:06:54;;;;;;;6.28;2.80;;;;;;;;;;5026813;28;20036;-65
2022/11/11 12:09:39;;;;;;;11.25;3.35;;;;;;;;;;5026450;28;20048;-65
2022/11/11 12:12:22;;;;;;;7.70;3.00;;;;;;;;;;5061466;28;20078;-65
2022/11/11 12:14:57;;;;;;;8.95;3.17;;;;;;;;;;5035292;28;20632;-65
2022/11/11 12:17:34;;;;;;;6.22;2.90;;;;;;;;;;5032253;28;20103;-65
2022/11/11 12:20:18;;;;;;;8.82;3.22;;;;;;;;;;5027803;28;20044;-65
2022/11/11 12:23:22;;;;;;;9.23;3.40;;;;;;;;;;5034308;28;20075;-65
2022/11/11 12:26:02;;;;;;;8.05;3.53;;;;;;;;;;5066391;28;20033;-66
2022/11/11 12:28:55;;;;;;;4.90;2.22;;;;;;;;;;5065357;28;20041;-66
2022/11/11 12:31:35;;;;;;;9.82;3.45;;;;;;;;;;5051498;28;20047;-65
2022/11/11 12:34:16;;;;;;;8.63;3.33;;;;;;;;;;5033555;28;20041;-65
2022/11/11 12:36:50;;;;;;;6.53;3.20;;;;;;;;;;5028825;28;20392;-65
2022/11/11 12:39:41;;;;;;;6.10;2.53;;;;;;;;;;5031395;28;20131;-65
2022/11/11 12:42:19;;;;;;;5.65;2.80;;;;;;;;;;5042966;28;20517;-66
2022/11/11 12:45:21;;;;;;;7.38;2.90;;;;;;;;;;5028476;28;20298;-66
2022/11/11 12:48:06;;;;;;;6.88;2.40;;;;;;;;;;5021518;28;20185;-66
2022/11/11 12:50:54;;;;;;;6.15;2.65;;;;;;;;;;5043832;28;20048;-65
2022/11/11 12:53:32;;;;;;;5.50;2.65;;;;;;;;;;5040315;28;20041;-65
2022/11/11 12:56:20;;;;;;;3.63;2.15;;;;;;;;;;5044881;28;20033;-65
2022/11/11 12:58:51;;;;;;;4.15;2.28;;;;;;;;;;5033978;28;20062;-65
2022/11/11 13:01:21;;;;;;;7.20;2.42;;;;;;;;;;5025511;28;20049;-65
2022/11/11 13:04:21;;;;;;;5.75;2.60;;;;;;;;;;5024160;28;20030;-65
2022/11/11 13:07:01;;;;;;;6.47;2.90;;;;;;;;;;5024806;28;20060;-65
2022/11/11 13:09:51;;;;;;;3.85;2.53;;;;;;;;;;5026452;28;20576;-65
2022/11/11 13:12:24;;;;;;;5.65;2.75;;;;;;;;;;5060503;28;20185;-65
2022/11/11 13:15:14;;;;;;;5.35;2.58;;;;;;;;;;5058087;28;20060;-66
2022/11/11 13:17:39;;;;;;;5.68;3.22;;;;;;;;;;5044942;28;20418;-66
2022/11/11 13:20:42;;;;;;;4.45;2.28;;;;;;;;;;5045620;28;20044;-65
2022/11/11 13:23:11;;;;;;;3.73;2.17;;;;;;;;;;5043491;28;20037;-66
2022/11/11 13:25:46;;;;;;;7.32;3.22;;;;;;;;;;5043609;28;20032;-65
2022/11/11 13:28:31;;;;;;;6.07;2.80;;;;;;;;;;5051999;28;20787;-65
2022/11/11 13:31:22;;;;;;;5.05;2.60;;;;;;;;;;5065289;28;20103;-65
2022/11/11 13:33:52;;;;;;;5.85;3.30;;;;;;;;;;5061241;28;20093;-65
2022/11/11 13:36:20;;;;;;;6.70;3.10;;;;;;;;;;5058714;28;20013;-65
2022/11/11 13:38:47;;;;;;;6.70;2.95;;;;;;;;;;5047234;28;20067;-65
2022/11/11 13:41:21;;;;;;;3.92;2.65;;;;;;;;;;5043342;28;21183;-65
2022/11/11 13:43:50;;;;;;;8.43;2.65;;;;;;;;;;5040501;28;20056;-65
2022/11/11 13:46:57;;;;;;;4.47;2.40;;;;;;;;;;5048739;28;20047;-65
2022/11/11 13:49:31;;;;;;;5.25;2.55;;;;;;;;;;4991364;28;20084;-65
2022/11/11 13:51:59;;;;;;;6.03;2.60;;;;;;;;;;5051674;28;20133;-65
2022/11/11 13:54:31;;;;;;;4.75;2.80;;;;;;;;;;5065974;28;20436;-64
2022/11/11 13:57:06;;;;;;;6.15;3.05;;;;;;;;;;5047163;28;20033;-65
2022/11/11 13:59:39;;;;;;;4.00;2.33;;;;;;;;;;5053032;28;20037;-62
2022/11/11 14:02:18;;;;;;;7.95;3.10;;;;;;;;;;5050723;28;20102;-61
2022/11/11 14:05:03;;;;;;;5.55;2.90;;;;;;;;;;5043187;28;20175;-62
2022/11/11 14:07:45;;;;;;;5.93;2.80;;;;;;;;;;5048659;28;20070;-63
2022/11/11 14:10:17;;;;;;;4.80;2.65;;;;;;;;;;5049526;28;20036;-63
2022/11/11 14:12:48;;;;;;;5.43;2.58;;;;;;;;;;5048163;28;20029;-63
2022/11/11 14:15:40;;;;;;;2.83;1.58;;;;;;;;;;5051425;28;20111;-64
2022/11/11 14:18:17;;;;;;;3.75;2.20;;;;;;;;;;5024233;28;20050;-63
2022/11/11 14:20:48;;;;;;;5.90;2.65;;;;;;;;;;5024567;28;20040;-61
2022/11/11 14:23:19;;;;;;;4.30;2.22;;;;;;;;;;5032553;28;20044;-60
2022/11/11 14:25:46;;;;;;;4.05;2.28;;;;;;;;;;5035208;28;20140;-60
2022/11/11 14:28:27;;;;;;;4.80;2.50;;;;;;;;;;5030475;28;20083;-61
2022/11/11 14:30:53;;;;;;;6.40;2.72;;;;;;;;;;5029190;28;20044;-62
2022/11/11 14:34:06;;;;;;;3.63;2.00;;;;;;;;;;5032845;28;20017;-62
2022/11/11 14:36:56;;;;;;;6.25;2.75;;;;;;;;;;4999263;28;20653;-62
2022/11/11 14:39:43;;;;;;;5.72;2.72;;;;;;;;;;5036136;28;20052;-65
2022/11/11 14:42:37;;;;;;;5.90;2.88;;;;;;;;;;5053368;28;20059;-63
2022/11/11 14:45:45;;;;;;;6.28;3.03;;;;;;;;;;5041190;28;20045;-63
2022/11/11 14:48:48;;;;;;;4.70;3.17;;;;;;;;;;5020903;28;20163;-61
2022/11/11 14:51:37;;;;;;;6.57;2.97;;;;;;;;;;5043064;28;20135;-62
2022/11/11 14:54:04;;;;;;;8.45;2.78;;;;;;;;;;5024872;28;20049;-61
2022/11/11 14:56:30;;;;;;;4.68;2.78;;;;;;;;;;5024562;28;20042;-61
2022/11/11 14:59:04;;;;;;;4.18;2.78;;;;;;;;;;5037162;28;20128;-61
2022/11/11 15:01:30;;;;;;;7.93;3.28;;;;;;;;;;5044466;28;20052;-61
2022/11/11 15:03:56;;;;;;;6.65;3.22;;;;;;;;;;5029024;28;20029;-61
2022/11/11 15:06:49;;;;;;;5.95;3.10;;;;;;;;;;5027057;28;20117;-61
2022/11/11 15:09:17;;;;;;;6.32;2.88;;;;;;;;;;5027386;28;20045;-61
2022/11/11 15:11:54;;;;;;;7.45;3.78;;;;;;;;;;5041080;28;20505;-61
2022/11/11 15:14:46;;;;;;;7.30;3.85;;;;;;;;;;5033381;28;20064;-61
2022/11/11 15:17:32;;;;;;;7.40;3.78;;;;;;;;;;5046394;28;20029;-61
2022/11/11 15:20:18;;;;;;;7.50;3.75;;;;;;;;;;5048068;28;20044;-61
2022/11/11 15:23:16;;;;;;;6.28;3.58;;;;;;;;;;5046829;28;20053;-61
2022/11/11 15:26:14;;;;;;;5.97;3.08;;;;;;;;;;5064330;28;20067;-60
2022/11/11 15:29:04;;;;;;;7.78;3.85;;;;;;;;;;5055989;28;20084;-60
2022/11/11 15:31:42;;;;;;;11.25;3.78;;;;;;;;;;5026337;28;20033;-61
2022/11/11 15:34:21;;;;;;;6.65;3.80;;;;;;;;;;5026582;28;20044;-61
2022/11/11 15:36:57;;;;;;;10.95;4.40;;;;;;;;;;5031472;28;20549;-61
2022/11/11 15:39:41;;;;;;;11.57;5.10;;;;;;;;;;5027796;28;20541;-63
2022/11/11 15:42:23;;;;;;;10.25;5.30;;;;;;;;;;5046573;28;20081;-62
2022/11/11 15:44:49;;;;;;;10.70;4.10;;;;;;;;;;5026621;28;20569;-62
2022/11/11 15:47:18;;;;;;;10.75;4.25;;;;;;;;;;5028647;28;20072;-61
2022/11/11 15:49:47;;;;;;;9.57;4.93;;;;;;;;;;5024783;28;20132;-62
2022/11/11 15:52:21;;;;;;;12.38;6.13;;;;;;;;;;5025127;28;20225;-62
2022/11/11 15:54:47;;;;;;;9.32;5.40;;;;;;;;;;5026366;28;20040;-63
2022/11/11 15:57:25;;;;;;;10.63;5.53;;;;;;;;;;5034472;28;20112;-62
2022/11/11 15:59:51;;;;;;;11.77;5.05;;;;;;;;;;5037564;28;20135;-63
2022/11/11 16:02:19;;;;;;;11.30;5.32;;;;;;;;;;5035860;28;20108;-62
2022/11/11 16:04:47;;;;;;;13.60;6.13;;;;;;;;;;5045904;28;20037;-63
2022/11/11 16:07:22;;;;;;;12.75;6.30;;;;;;;;;;5047078;28;20128;-62
2022/11/11 16:09:48;;;;;;;13.85;5.88;;;;;;;;;;5046393;28;20582;-62
2022/11/11 16:12:18;;;;;;;13.05;6.10;;;;;;;;;;5043869;28;20016;-63
2022/11/11 16:14:46;;;;;;;12.73;5.80;;;;;;;;;;5044195;28;20040;-63
2022/11/11 16:17:12;;;;;;;9.88;5.18;;;;;;;;;;5046469;28;20498;-62
2022/11/11 16:19:41;;;;;;;9.70;4.95;;;;;;;;;;5044961;28;20036;-63
2022/11/11 16:22:16;;;;;;;9.80;5.63;;;;;;;;;;5044081;28;20117;-62
2022/11/11 16:24:44;;;;;;;8.93;5.20;;;;;;;;;;5029251;28;20775;-63